createdAt,value
2018-05-24T00:00:03.087Z,2.60
2018-05-24T00:02:06.441Z,2.30
2018-05-24T00:04:09.774Z,1.70
2018-05-24T00:06:13.128Z,1.90
2018-05-24T00:08:16.605Z,2.10
2018-05-24T00:10:19.964Z,2.20
2018-05-24T00:12:23.278Z,2.07
2018-05-24T00:14:26.629Z,2.37
2018-05-24T00:16:30.004Z,1.90
2018-05-24T00:18:33.475Z,1.90
2018-05-24T00:20:36.865Z,2.37
2018-05-24T00:22:40.269Z,2.27
2018-05-24T00:24:43.640Z,2.17
2018-05-24T00:26:47.015Z,1.70
2018-05-24T00:28:50.700Z,2.23
2018-05-24T00:30:54.835Z,2.27
2018-05-24T00:32:58.375Z,2.33
2018-05-24T00:35:01.741Z,2.23
2018-05-24T00:37:05.092Z,3.37
2018-05-24T00:39:09.410Z,2.27
2018-05-24T00:41:13.603Z,2.03
2018-05-24T00:43:19.043Z,2.33
2018-05-24T00:45:23.180Z,2.30
2018-05-24T00:47:27.409Z,2.77
2018-05-24T00:49:30.985Z,2.23
2018-05-24T00:51:35.187Z,2.07
2018-05-24T00:53:38.675Z,2.50
2018-05-24T00:55:42.780Z,2.53
2018-05-24T00:57:46.152Z,1.90
2018-05-24T00:59:50.094Z,2.53
2018-05-24T01:01:53.444Z,2.00
2018-05-24T01:03:56.785Z,2.30
2018-05-24T01:06:00.848Z,2.10
2018-05-24T01:08:04.307Z,1.80
2018-05-24T01:10:07.646Z,2.50
2018-05-24T01:12:11.082Z,2.03
2018-05-24T01:14:15.174Z,2.67
2018-05-24T01:16:18.505Z,1.90
2018-05-24T01:18:21.859Z,2.40
2018-05-24T01:20:25.192Z,2.00
2018-05-24T01:22:28.542Z,1.83
2018-05-24T01:24:31.870Z,1.70
2018-05-24T01:26:35.216Z,1.73
2018-05-24T01:28:38.564Z,2.17
2018-05-24T01:30:41.894Z,1.97
2018-05-24T01:32:45.402Z,2.20
2018-05-24T01:34:48.916Z,2.00
2018-05-24T01:37:09.715Z,1.97
2018-05-24T01:39:13.045Z,1.87
2018-05-24T01:41:16.608Z,2.00
2018-05-24T01:43:20.722Z,2.00
2018-05-24T01:45:24.069Z,2.00
2018-05-24T01:47:27.573Z,1.53
2018-05-24T01:49:31.162Z,2.50
2018-05-24T01:51:34.459Z,1.53
2018-05-24T01:53:37.861Z,2.00
2018-05-24T01:55:41.170Z,1.53
2018-05-24T01:57:44.530Z,2.17
2018-05-24T01:59:47.937Z,2.13
2018-05-24T02:01:51.237Z,1.97
2018-05-24T02:03:54.573Z,1.83
2018-05-24T02:05:57.886Z,1.97
2018-05-24T02:08:01.188Z,1.53
2018-05-24T02:10:04.533Z,2.20
2018-05-24T02:12:07.860Z,1.57
2018-05-24T02:14:11.177Z,1.83
2018-05-24T02:16:14.494Z,1.60
2018-05-24T02:18:17.837Z,1.70
2018-05-24T02:20:21.144Z,1.73
2018-05-24T02:22:24.462Z,1.83
2018-05-24T02:24:28.653Z,1.93
2018-05-24T02:26:31.975Z,1.33
2018-05-24T02:28:35.300Z,2.27
2018-05-24T02:30:38.885Z,2.10
2018-05-24T02:32:42.215Z,1.30
2018-05-24T02:34:45.719Z,1.57
2018-05-24T02:36:49.063Z,2.07
2018-05-24T02:38:52.364Z,1.63
2018-05-24T02:40:55.786Z,1.60
2018-05-24T02:42:59.131Z,1.80
2018-05-24T02:45:03.293Z,1.40
2018-05-24T02:47:06.629Z,1.63
2018-05-24T02:49:09.975Z,1.70
2018-05-24T02:51:13.295Z,1.70
2018-05-24T02:53:16.632Z,2.10
2018-05-24T02:55:19.946Z,2.00
2018-05-24T02:57:23.267Z,1.93
2018-05-24T02:59:26.619Z,1.40
2018-05-24T03:01:29.946Z,1.70
2018-05-24T03:03:33.294Z,1.70
2018-05-24T03:05:36.610Z,1.73
2018-05-24T03:07:39.943Z,1.60
2018-05-24T03:09:44.062Z,1.73
2018-05-24T03:11:47.380Z,1.90
2018-05-24T03:13:50.763Z,1.40
2018-05-24T03:15:54.081Z,1.80
2018-05-24T03:17:57.410Z,1.90
2018-05-24T03:20:00.754Z,1.80
2018-05-24T03:22:04.095Z,1.40
2018-05-24T03:24:08.426Z,2.10
2018-05-24T03:26:11.784Z,1.70
2018-05-24T03:28:15.112Z,1.60
2018-05-24T03:30:18.459Z,1.57
2018-05-24T03:32:21.779Z,2.00
2018-05-24T03:34:25.921Z,1.70
2018-05-24T03:36:29.242Z,1.60
2018-05-24T03:38:32.595Z,1.80
2018-05-24T03:40:35.971Z,1.27
2018-05-24T03:42:40.091Z,1.80
2018-05-24T03:44:44.245Z,1.63
2018-05-24T03:46:47.603Z,1.90
2018-05-24T03:48:50.923Z,2.20
2018-05-24T03:50:54.236Z,2.07
2018-05-24T03:52:57.559Z,2.17
2018-05-24T03:55:01.696Z,1.90
2018-05-24T03:57:05.008Z,2.40
2018-05-24T04:02:31.179Z,2.37
2018-05-24T04:04:58.760Z,2.70
2018-05-24T04:07:02.832Z,1.83
2018-05-24T04:09:06.308Z,2.27
2018-05-24T04:11:09.626Z,2.13
2018-05-24T04:13:12.956Z,2.03
2018-05-24T04:15:17.059Z,2.07
2018-05-24T04:17:20.410Z,2.60
2018-05-24T04:19:23.810Z,2.53
2018-05-24T04:21:27.212Z,1.97
2018-05-24T04:23:30.535Z,2.10
2018-05-24T04:25:34.800Z,2.23
2018-05-24T04:27:38.154Z,2.10
2018-05-24T04:29:42.247Z,2.03
2018-05-24T04:31:46.660Z,2.23
2018-05-24T04:33:51.784Z,2.30
2018-05-24T04:35:55.145Z,1.70
2018-05-24T04:37:58.876Z,2.30
2018-05-24T04:40:02.580Z,2.03
2018-05-24T04:42:05.953Z,3.03
2018-05-24T04:44:09.310Z,3.10
2018-05-24T04:46:12.802Z,1.97
2018-05-24T04:48:16.143Z,2.10
2018-05-24T04:50:19.526Z,2.50
2018-05-24T04:52:23.680Z,2.27
2018-05-24T04:54:28.502Z,2.60
2018-05-24T04:56:32.609Z,2.80
2018-05-24T04:58:36.748Z,2.77
2018-05-24T05:00:40.386Z,2.30
2018-05-24T05:02:43.756Z,2.03
2018-05-24T05:04:47.888Z,2.20
2018-05-24T05:06:51.213Z,2.60
2018-05-24T05:08:55.295Z,2.60
2018-05-24T05:10:58.647Z,2.13
2018-05-24T05:13:02.015Z,2.70
2018-05-24T05:15:05.450Z,2.80
2018-05-24T05:17:08.825Z,2.83
2018-05-24T05:19:12.240Z,3.40
2018-05-24T05:21:15.559Z,2.70
2018-05-24T05:23:18.970Z,2.53
2018-05-24T05:25:23.985Z,3.40
2018-05-24T05:27:28.181Z,3.17
2018-05-24T05:29:31.551Z,3.20
2018-05-24T05:31:35.324Z,3.77
2018-05-24T05:33:38.671Z,3.27
2018-05-24T05:35:42.032Z,2.97
2018-05-24T05:37:45.449Z,3.20
2018-05-24T05:39:48.918Z,3.20
2018-05-24T05:41:52.323Z,3.20
2018-05-24T05:43:55.950Z,2.80
2018-05-24T05:45:59.429Z,3.00
2018-05-24T05:48:02.845Z,2.77
2018-05-24T05:50:06.239Z,3.60
2018-05-24T05:52:09.694Z,3.90
2018-05-24T05:54:12.935Z,3.40
2018-05-24T05:56:16.326Z,3.90
2018-05-24T05:58:19.635Z,3.93
2018-05-24T06:00:24.603Z,4.33
2018-05-24T06:02:27.949Z,4.67
2018-05-24T06:04:32.129Z,5.07
2018-05-24T06:06:35.541Z,4.63
2018-05-24T06:08:38.985Z,4.27
2018-05-24T06:10:42.415Z,4.07
2018-05-24T06:12:45.740Z,4.20
2018-05-24T06:15:06.237Z,4.40
2018-05-24T06:17:09.788Z,4.90
2018-05-24T06:19:13.187Z,4.40
2018-05-24T06:21:16.508Z,4.03
2018-05-24T06:23:19.908Z,5.00
2018-05-24T06:25:23.337Z,4.33
2018-05-24T06:27:26.679Z,4.23
2018-05-24T06:29:29.972Z,4.97
2018-05-24T06:31:33.304Z,4.00
2018-05-24T06:33:36.663Z,4.67
2018-05-24T06:35:40.030Z,4.93
2018-05-24T06:37:43.403Z,4.07
2018-05-24T06:39:46.779Z,4.53
2018-05-24T06:41:50.203Z,3.73
2018-05-24T06:43:53.599Z,4.67
2018-05-24T06:45:56.972Z,4.00
2018-05-24T06:48:00.300Z,4.10
2018-05-24T06:50:03.645Z,4.13
2018-05-24T06:52:06.971Z,3.77
2018-05-24T06:54:10.334Z,4.20
2018-05-24T06:56:13.720Z,3.50
2018-05-24T06:58:17.259Z,3.87
2018-05-24T07:00:20.600Z,3.70
2018-05-24T07:02:24.295Z,4.33
2018-05-24T07:04:27.719Z,3.43
2018-05-24T07:06:31.093Z,3.70
2018-05-24T07:08:34.533Z,3.50
2018-05-24T07:10:39.630Z,3.27
2018-05-24T07:12:43.060Z,4.00
2018-05-24T07:14:46.469Z,3.57
2018-05-24T07:16:50.575Z,3.80
2018-05-24T07:18:53.935Z,3.27
2018-05-24T07:20:57.611Z,4.03
2018-05-24T07:23:01.006Z,3.40
2018-05-24T07:25:04.413Z,3.83
2018-05-24T07:27:08.016Z,3.57
2018-05-24T07:29:11.372Z,2.70
2018-05-24T07:31:14.765Z,3.90
2018-05-24T07:33:18.242Z,3.50
2018-05-24T07:35:21.578Z,3.10
2018-05-24T07:37:24.919Z,4.37
2018-05-24T07:39:28.309Z,3.53
2018-05-24T07:41:31.687Z,3.67
2018-05-24T07:43:35.008Z,4.30
2018-05-24T07:45:38.368Z,3.53
2018-05-24T07:47:41.686Z,3.20
2018-05-24T07:49:45.028Z,3.63
2018-05-24T07:51:48.381Z,3.40
2018-05-24T07:53:51.721Z,3.90
2018-05-24T07:55:55.627Z,3.93
2018-05-24T07:57:59.546Z,4.23
2018-05-24T08:00:02.972Z,3.37
2018-05-24T08:02:06.303Z,3.20
2018-05-24T08:04:09.722Z,3.40
2018-05-24T08:06:13.071Z,3.67
2018-05-24T08:08:16.486Z,3.90
2018-05-24T08:10:20.008Z,3.83
2018-05-24T08:12:23.403Z,3.43
2018-05-24T08:14:27.132Z,3.00
2018-05-24T08:16:30.493Z,3.63
2018-05-24T08:18:33.850Z,4.33
2018-05-24T08:20:37.176Z,3.93
2018-05-24T08:22:41.021Z,4.20
2018-05-24T08:24:44.370Z,4.03
2018-05-24T08:26:47.702Z,3.70
2018-05-24T08:28:51.026Z,3.83
2018-05-24T08:30:54.362Z,4.30
2018-05-24T08:32:57.704Z,3.77
2018-05-24T08:35:01.116Z,4.60
2018-05-24T08:37:04.417Z,3.90
2018-05-24T08:39:07.776Z,3.73
2018-05-24T08:41:12.376Z,3.60
2018-05-24T08:43:15.724Z,4.23
2018-05-24T08:45:19.041Z,3.40
2018-05-24T08:47:22.511Z,4.00
2018-05-24T08:49:25.787Z,3.90
2018-05-24T08:51:29.106Z,3.97
2018-05-24T08:53:32.550Z,4.53
2018-05-24T08:55:35.900Z,3.87
2018-05-24T08:57:40.091Z,4.10
2018-05-24T08:59:43.596Z,2.97
2018-05-24T09:01:47.854Z,3.53
2018-05-24T09:03:51.249Z,3.90
2018-05-24T09:05:54.655Z,3.90
2018-05-24T09:07:57.983Z,3.83
2018-05-24T09:10:01.341Z,3.63
2018-05-24T09:12:04.760Z,3.60
2018-05-24T09:14:09.225Z,4.67
2018-05-24T09:16:12.653Z,3.53
2018-05-24T09:18:15.989Z,4.20
2018-05-24T09:20:19.487Z,4.80
2018-05-24T09:22:22.808Z,3.80
2018-05-24T09:24:26.199Z,4.20
2018-05-24T09:26:30.361Z,3.83
2018-05-24T09:28:33.699Z,3.47
2018-05-24T09:30:38.172Z,4.27
2018-05-24T09:32:41.625Z,4.23
2018-05-24T09:34:45.097Z,3.90
2018-05-24T09:36:48.693Z,4.63
2018-05-24T09:38:52.076Z,5.50
2018-05-24T09:40:55.477Z,4.70
2018-05-24T09:42:58.876Z,5.40
2018-05-24T09:45:02.233Z,6.00
2018-05-24T09:47:05.589Z,5.20
2018-05-24T09:49:09.145Z,4.97
2018-05-24T09:51:12.518Z,5.67
2018-05-24T09:53:15.951Z,5.03
2018-05-24T09:55:19.340Z,5.40
2018-05-24T09:57:22.742Z,5.30
2018-05-24T09:59:26.088Z,4.67
2018-05-24T10:01:29.488Z,5.20
2018-05-24T10:03:32.968Z,4.93
2018-05-24T10:05:36.446Z,6.20
2018-05-24T10:07:39.914Z,5.87
2018-05-24T10:09:43.387Z,5.70
2018-05-24T10:11:46.810Z,5.60
2018-05-24T10:13:50.151Z,5.63
2018-05-24T10:15:53.500Z,5.63
2018-05-24T10:17:56.885Z,5.00
2018-05-24T10:20:00.373Z,6.50
2018-05-24T10:22:03.783Z,6.03
2018-05-24T10:24:07.235Z,5.93
2018-05-24T10:26:10.777Z,6.37
2018-05-24T10:28:14.225Z,5.73
2018-05-24T10:30:17.591Z,5.40
2018-05-24T10:32:20.975Z,6.10
2018-05-24T10:34:24.437Z,6.37
2018-05-24T10:36:27.812Z,5.80
2018-05-24T10:38:31.496Z,6.33
2018-05-24T10:40:35.598Z,6.47
2018-05-24T10:42:39.249Z,7.00
2018-05-24T10:44:42.824Z,6.50
2018-05-24T10:46:46.363Z,6.40
2018-05-24T10:48:49.859Z,6.17
2018-05-24T10:50:53.311Z,6.07
2018-05-24T10:52:56.615Z,5.83
2018-05-24T10:55:00.713Z,6.00
2018-05-24T10:57:04.862Z,5.93
2018-05-24T10:59:08.204Z,7.17
2018-05-24T11:01:11.725Z,6.97
2018-05-24T11:03:15.099Z,6.57
2018-05-24T11:05:18.504Z,6.53
2018-05-24T11:07:22.642Z,6.90
2018-05-24T11:09:26.078Z,7.00
2018-05-24T11:11:29.500Z,7.30
2018-05-24T11:13:33.669Z,7.13
2018-05-24T11:15:37.012Z,8.00
2018-05-24T11:17:40.371Z,6.60
2018-05-24T11:19:43.857Z,5.63
2018-05-24T11:21:47.295Z,6.50
2018-05-24T11:23:50.782Z,6.33
2018-05-24T11:25:54.177Z,8.10
2018-05-24T11:27:58.321Z,5.87
2018-05-24T11:30:01.701Z,6.27
2018-05-24T11:32:05.176Z,6.43
2018-05-24T11:34:08.611Z,5.93
2018-05-24T11:36:11.999Z,6.50
2018-05-24T11:38:15.330Z,6.40
2018-05-24T11:40:18.727Z,5.60
2018-05-24T11:42:22.130Z,6.60
2018-05-24T11:44:25.537Z,6.70
2018-05-24T11:46:28.942Z,6.57
2018-05-24T11:48:32.423Z,6.67
2018-05-24T11:50:36.559Z,6.20
2018-05-24T11:52:39.891Z,6.37
2018-05-24T11:54:43.281Z,6.93
2018-05-24T11:56:46.804Z,6.80
2018-05-24T11:58:52.067Z,7.53
2018-05-24T12:00:56.224Z,7.37
2018-05-24T12:02:59.590Z,7.27
2018-05-24T12:05:02.946Z,6.40
2018-05-24T12:07:07.167Z,7.20
2018-05-24T12:09:10.557Z,7.23
2018-05-24T12:11:14.718Z,6.43
2018-05-24T12:13:18.106Z,6.80
2018-05-24T12:15:21.587Z,5.73
2018-05-24T12:17:24.988Z,6.83
2018-05-24T12:19:28.356Z,5.50
2018-05-24T12:21:31.768Z,7.00
2018-05-24T12:23:35.201Z,6.73
2018-05-24T12:25:38.694Z,6.20
2018-05-24T12:27:42.675Z,6.47
2018-05-24T12:29:46.146Z,7.00
2018-05-24T12:31:49.526Z,6.80
2018-05-24T12:33:53.675Z,6.73
2018-05-24T12:35:57.068Z,5.43
2018-05-24T12:38:00.462Z,5.70
2018-05-24T12:40:03.909Z,4.70
2018-05-24T12:42:07.303Z,5.70
2018-05-24T12:44:10.722Z,4.40
2018-05-24T12:46:14.078Z,6.20
2018-05-24T12:48:18.457Z,4.87
2018-05-24T12:50:21.860Z,5.20
2018-05-24T12:52:25.289Z,4.83
2018-05-24T12:54:29.000Z,5.33
2018-05-24T12:56:33.118Z,4.80
2018-05-24T12:58:38.600Z,5.53
2018-05-24T13:00:42.226Z,4.77
2018-05-24T13:02:45.703Z,5.80
2018-05-24T13:04:49.066Z,6.07
2018-05-24T13:06:52.585Z,5.97
2018-05-24T13:08:55.925Z,6.53
2018-05-24T13:11:00.262Z,6.10
2018-05-24T13:13:03.652Z,5.60
2018-05-24T13:15:07.027Z,5.60
2018-05-24T13:17:11.156Z,5.53
2018-05-24T13:19:14.497Z,5.20
2018-05-24T13:21:17.979Z,5.33
2018-05-24T13:23:21.359Z,6.30
2018-05-24T13:25:24.706Z,6.27
2018-05-24T13:27:28.031Z,4.77
2018-05-24T13:29:31.452Z,5.27
2018-05-24T13:31:34.835Z,5.70
2018-05-24T13:33:38.248Z,4.60
2018-05-24T13:35:41.597Z,4.40
2018-05-24T13:37:44.978Z,4.53
2018-05-24T13:39:48.358Z,4.93
2018-05-24T13:41:52.630Z,5.07
2018-05-24T13:43:56.041Z,5.00
2018-05-24T13:46:00.237Z,5.43
2018-05-24T13:48:03.553Z,4.23
2018-05-24T13:50:07.001Z,4.73
2018-05-24T13:52:10.500Z,5.40
2018-05-24T13:54:13.911Z,4.87
2018-05-24T13:56:17.300Z,4.60
2018-05-24T13:58:20.844Z,4.10
2018-05-24T14:00:24.234Z,4.43
2018-05-24T14:02:27.680Z,3.90
2018-05-24T14:04:31.911Z,4.60
2018-05-24T14:08:38.796Z,4.60
2018-05-24T14:10:42.690Z,3.90
2018-05-24T14:12:47.263Z,5.40
2018-05-24T14:14:50.668Z,4.40
2018-05-24T14:16:54.091Z,4.30
2018-05-24T14:18:58.076Z,4.97
2018-05-24T14:21:01.952Z,4.97
2018-05-24T14:23:05.308Z,4.83
2018-05-24T14:25:08.783Z,4.80
2018-05-24T14:27:12.194Z,4.70
2018-05-24T14:29:15.961Z,4.50
2018-05-24T14:31:19.404Z,4.70
2018-05-24T14:33:23.609Z,3.90
2018-05-24T14:35:28.269Z,4.80
2018-05-24T14:37:33.068Z,4.77
2018-05-24T14:39:36.729Z,4.13
2018-05-24T14:41:40.540Z,4.80
2018-05-24T14:43:43.935Z,4.23
2018-05-24T14:45:50.574Z,4.20
2018-05-24T14:47:57.838Z,4.50
2018-05-24T14:50:01.363Z,4.10
2018-05-24T14:52:04.903Z,4.23
2018-05-24T14:54:08.348Z,3.93
2018-05-24T14:56:12.458Z,4.30
2018-05-24T14:58:15.883Z,5.00
2018-05-24T15:00:19.352Z,5.27
2018-05-24T15:02:22.847Z,4.97
2018-05-24T15:04:26.432Z,6.43
2018-05-24T15:06:30.007Z,7.00
2018-05-24T15:08:33.362Z,6.83
2018-05-24T15:10:36.790Z,6.63
2018-05-24T15:12:40.172Z,7.40
2018-05-24T15:14:43.574Z,6.77
2018-05-24T15:16:47.132Z,6.90
2018-05-24T15:18:50.649Z,6.60
2018-05-24T15:20:54.114Z,7.03
2018-05-24T15:22:57.487Z,6.37
2018-05-24T15:25:00.936Z,6.93
2018-05-24T15:27:05.105Z,7.00
2018-05-24T15:29:08.513Z,7.27
2018-05-24T15:31:11.900Z,7.57
2018-05-24T15:33:15.255Z,7.60
2018-05-24T15:35:18.667Z,7.57
2018-05-24T15:37:22.047Z,7.07
2018-05-24T15:39:25.490Z,8.10
2018-05-24T15:41:28.900Z,7.93
2018-05-24T15:43:32.318Z,7.90
2018-05-24T15:45:35.769Z,9.03
2018-05-24T15:47:39.187Z,7.93
2018-05-24T15:49:42.524Z,7.63
2018-05-24T15:51:45.971Z,8.33
2018-05-24T15:53:49.436Z,7.23
2018-05-24T15:55:52.896Z,7.30
2018-05-24T15:57:56.289Z,7.70
2018-05-24T16:00:00.657Z,8.73
2018-05-24T16:02:04.638Z,6.90
2018-05-24T16:04:08.282Z,7.93
2018-05-24T16:06:12.574Z,7.30
2018-05-24T16:08:16.078Z,6.90
2018-05-24T16:10:19.715Z,6.27
2018-05-24T16:12:25.326Z,7.07
2018-05-24T16:14:30.336Z,7.70
2018-05-24T16:16:33.783Z,7.00
2018-05-24T16:18:37.979Z,7.03
2018-05-24T16:20:41.398Z,7.10
2018-05-24T16:22:44.815Z,6.73
2018-05-24T16:24:48.292Z,6.40
2018-05-24T16:26:51.874Z,6.90
2018-05-24T16:28:55.441Z,6.47
2018-05-24T16:31:00.921Z,6.87
2018-05-24T16:33:05.510Z,7.70
2018-05-24T16:35:09.269Z,7.23
2018-05-24T16:37:14.226Z,5.77
2018-05-24T16:39:18.565Z,6.50
2018-05-24T16:41:22.305Z,6.10
2018-05-24T16:43:26.383Z,4.77
2018-05-24T16:45:31.032Z,5.23
2018-05-24T16:47:34.524Z,4.73
2018-05-24T16:49:38.721Z,3.77
2018-05-24T16:51:42.199Z,4.57
2018-05-24T16:53:46.527Z,3.90
2018-05-24T16:55:49.972Z,4.43
2018-05-24T16:57:54.306Z,3.80
2018-05-24T17:00:04.128Z,3.30
2018-05-24T17:02:08.106Z,3.80
2018-05-24T17:04:11.689Z,3.43
2018-05-24T17:06:15.878Z,3.70
2018-05-24T17:08:20.740Z,3.97
2018-05-24T17:10:25.295Z,3.47
2018-05-24T17:12:29.329Z,3.50
2018-05-24T17:14:33.316Z,3.40
2018-05-24T17:16:37.592Z,3.10
2018-05-24T17:18:42.935Z,3.33
2018-05-24T17:20:49.394Z,3.07
2018-05-24T17:22:55.407Z,3.43
2018-05-24T17:24:59.703Z,2.60
2018-05-24T17:27:03.909Z,3.20
2018-05-24T17:29:07.502Z,3.50
2018-05-24T17:31:10.915Z,3.43
2018-05-24T17:33:14.808Z,3.47
2018-05-24T17:35:18.225Z,2.93
2018-05-24T17:37:21.715Z,2.97
2018-05-24T17:39:26.644Z,3.23
2018-05-24T17:41:30.047Z,2.87
2018-05-24T17:43:33.613Z,2.67
2018-05-24T17:45:37.802Z,2.83
2018-05-24T17:47:41.200Z,2.03
2018-05-24T17:49:45.630Z,2.70
2018-05-24T17:51:49.038Z,3.13
2018-05-24T17:53:52.422Z,2.97
2018-05-24T17:55:55.878Z,2.50
2018-05-24T17:57:59.581Z,2.90
2018-05-24T18:00:03.685Z,3.40
2018-05-24T18:02:07.322Z,3.30
2018-05-24T18:04:10.852Z,3.27
2018-05-24T18:06:14.906Z,2.93
2018-05-24T18:08:18.453Z,2.97
2018-05-24T18:10:21.962Z,2.70
2018-05-24T18:12:29.477Z,3.40
2018-05-24T18:14:34.101Z,2.47
2018-05-24T18:16:37.623Z,2.80
2018-05-24T18:18:41.004Z,2.63
2018-05-24T18:20:44.514Z,2.43
2018-05-24T18:22:48.910Z,2.50
2018-05-24T18:24:52.376Z,3.40
2018-05-24T18:26:56.695Z,2.90
2018-05-24T18:29:00.475Z,3.47
2018-05-24T18:31:04.939Z,3.43
2018-05-24T18:33:09.289Z,2.90
2018-05-24T18:35:12.690Z,3.43
2018-05-24T18:37:16.099Z,3.90
2018-05-24T18:39:19.435Z,3.10
2018-05-24T18:41:23.778Z,2.87
2018-05-24T18:43:27.391Z,4.30
2018-05-24T18:45:30.869Z,3.50
2018-05-24T18:47:34.232Z,4.10
2018-05-24T18:49:37.588Z,3.63
2018-05-24T18:51:43.101Z,3.17
2018-05-24T18:53:50.485Z,3.57
2018-05-24T18:55:54.825Z,4.20
2018-05-24T18:57:58.209Z,4.00
2018-05-24T19:00:04.975Z,7.00
2018-05-24T19:02:09.319Z,9.80
2018-05-24T19:04:13.946Z,8.90
2018-05-24T19:06:18.127Z,4.70
2018-05-24T19:08:21.574Z,9.67
2018-05-24T19:10:25.139Z,5.20
2018-05-24T19:12:28.816Z,11.10
2018-05-24T19:14:32.472Z,5.07
2018-05-24T19:16:35.795Z,5.03
2018-05-24T19:18:39.197Z,7.50
2018-05-24T19:20:42.700Z,26.73
2018-05-24T19:22:46.095Z,16.30
2018-05-24T19:24:49.502Z,21.23
2018-05-24T19:26:52.839Z,9.33
2018-05-24T19:28:56.275Z,12.10
2018-05-24T19:30:59.864Z,6.37
2018-05-24T19:33:03.218Z,8.13
2018-05-24T19:35:06.724Z,7.80
2018-05-24T19:37:10.413Z,5.87
2018-05-24T19:39:13.816Z,5.83
2018-05-24T19:41:17.269Z,4.60
2018-05-24T19:43:21.555Z,5.23
2018-05-24T19:45:25.379Z,4.60
2018-05-24T19:47:28.813Z,5.53
2018-05-24T19:49:32.242Z,8.60
2018-05-24T19:51:35.730Z,4.97
2018-05-24T19:53:40.408Z,6.40
2018-05-24T19:55:44.849Z,5.37
2018-05-24T19:57:48.618Z,5.53
2018-05-24T19:59:52.595Z,6.47
2018-05-24T20:01:57.036Z,6.27
2018-05-24T20:04:01.174Z,6.30
2018-05-24T20:06:05.162Z,5.33
2018-05-24T20:08:08.664Z,5.30
2018-05-24T20:10:12.262Z,5.53
2018-05-24T20:12:15.696Z,6.07
2018-05-24T20:14:20.076Z,5.70
2018-05-24T20:16:23.525Z,10.37
2018-05-24T20:18:27.626Z,6.10
2018-05-24T20:20:31.139Z,5.70
2018-05-24T20:22:35.448Z,6.10
2018-05-24T20:24:39.001Z,6.23
2018-05-24T20:26:43.112Z,6.67
2018-05-24T20:28:46.856Z,6.53
2018-05-24T20:30:50.238Z,7.40
2018-05-24T20:32:53.958Z,6.90
2018-05-24T20:34:57.485Z,6.27
2018-05-24T20:37:01.273Z,6.60
2018-05-24T20:39:06.959Z,7.40
2018-05-24T20:41:10.465Z,5.90
2018-05-24T20:43:13.988Z,6.17
2018-05-24T20:45:17.816Z,8.57
2018-05-24T20:47:22.427Z,7.57
2018-05-24T20:49:26.430Z,7.30
2018-05-24T20:51:30.316Z,6.23
2018-05-24T20:53:33.812Z,6.80
2018-05-24T20:55:37.780Z,7.87
2018-05-24T20:57:42.143Z,7.30
2018-05-24T20:59:45.738Z,7.50
2018-05-24T21:01:49.361Z,6.53
2018-05-24T21:03:52.969Z,6.00
2018-05-24T21:05:56.468Z,7.07
2018-05-24T21:08:00.035Z,7.57
2018-05-24T21:10:03.491Z,7.80
2018-05-24T21:12:06.851Z,7.20
2018-05-24T21:14:10.981Z,7.80
2018-05-24T21:16:14.408Z,7.17
2018-05-24T21:18:17.940Z,6.77
2018-05-24T21:20:21.781Z,7.20
2018-05-24T21:22:25.147Z,8.40
2018-05-24T21:24:29.460Z,8.10
2018-05-24T21:26:32.956Z,6.70
2018-05-24T21:28:36.391Z,7.50
2018-05-24T21:30:39.809Z,7.60
2018-05-24T21:32:44.235Z,9.20
2018-05-24T21:34:50.535Z,8.50
2018-05-24T21:36:55.210Z,7.53
2018-05-24T21:38:59.852Z,6.80
2018-05-24T21:41:03.829Z,7.37
2018-05-24T21:43:07.833Z,6.93
2018-05-24T21:45:11.778Z,8.40
2018-05-24T21:47:15.725Z,7.80
2018-05-24T21:49:19.136Z,9.90
2018-05-24T21:51:22.844Z,10.23
2018-05-24T21:53:26.221Z,8.23
2018-05-24T21:55:29.773Z,8.50
2018-05-24T21:57:33.770Z,8.37
2018-05-24T21:59:37.343Z,7.80
2018-05-24T22:01:40.914Z,11.00
2018-05-24T22:03:45.085Z,9.07
2018-05-24T22:05:48.722Z,8.17
2018-05-24T22:07:52.201Z,7.70
2018-05-24T22:09:56.437Z,7.93
2018-05-24T22:12:00.591Z,12.67
2018-05-24T22:14:04.093Z,15.13
2018-05-24T22:16:07.528Z,18.70
2018-05-24T22:18:11.727Z,16.00
2018-05-24T22:20:15.194Z,11.00
2018-05-24T22:22:18.666Z,10.17
2018-05-24T22:24:22.105Z,9.37
2018-05-24T22:26:25.694Z,12.50
2018-05-24T22:28:29.064Z,12.77
2018-05-24T22:30:32.480Z,12.10
2018-05-24T22:32:35.839Z,10.53
2018-05-24T22:34:39.328Z,11.03
2018-05-24T22:36:42.840Z,22.50
2018-05-24T22:38:46.219Z,13.43
2018-05-24T22:40:49.608Z,10.90
2018-05-24T22:42:53.024Z,13.40
2018-05-24T22:44:56.357Z,17.17
2018-05-24T22:47:00.470Z,22.00
2018-05-24T22:49:03.812Z,13.10
2018-05-24T22:51:07.124Z,11.07
2018-05-24T22:53:10.590Z,9.50
2018-05-24T22:55:15.537Z,9.07
2018-05-24T22:57:19.038Z,9.63
2018-05-24T22:59:22.465Z,10.73
2018-05-24T23:01:25.994Z,9.80
2018-05-24T23:03:32.954Z,8.90
2018-05-24T23:05:37.212Z,9.30
2018-05-24T23:07:45.352Z,9.10
2018-05-24T23:09:49.123Z,9.83
2018-05-24T23:11:52.584Z,9.40
2018-05-24T23:13:56.049Z,9.80
2018-05-24T23:15:59.802Z,8.60
2018-05-24T23:18:03.315Z,9.40
2018-05-24T23:20:07.096Z,9.20
2018-05-24T23:22:11.554Z,9.53
2018-05-24T23:24:15.104Z,9.40
2018-05-24T23:26:18.724Z,8.80
2018-05-24T23:28:22.224Z,9.30
2018-05-24T23:30:25.934Z,8.67
2018-05-24T23:32:29.393Z,8.47
2018-05-24T23:34:33.160Z,10.50
2018-05-24T23:36:37.358Z,10.57
2018-05-24T23:38:41.204Z,10.30
2018-05-24T23:40:44.561Z,9.27
2018-05-24T23:42:48.011Z,9.27
2018-05-24T23:44:51.528Z,8.70
2018-05-24T23:46:54.919Z,9.07
2018-05-24T23:48:58.302Z,9.43
2018-05-24T23:51:01.662Z,10.10
2018-05-24T23:53:05.086Z,10.67
2018-05-24T23:55:08.704Z,9.10
2018-05-24T23:57:12.124Z,10.40
2018-05-24T23:59:15.548Z,9.50
